createdAt,value
2017-07-28T00:00:04.759Z,27.7
2017-07-28T00:01:06.885Z,27.7
2017-07-28T00:02:08.683Z,27.8
2017-07-28T00:03:10.482Z,27.8
2017-07-28T00:04:12.614Z,27.7
2017-07-28T00:05:14.084Z,27.8
2017-07-28T00:06:15.882Z,27.8
2017-07-28T00:07:18.049Z,27.7
2017-07-28T00:08:21.594Z,27.8
2017-07-28T00:09:23.393Z,27.7
2017-07-28T00:10:25.526Z,27.7
2017-07-28T00:11:26.969Z,27.7
2017-07-28T00:12:28.437Z,27.8
2017-07-28T00:13:30.573Z,27.8
2017-07-28T00:14:32.714Z,27.7
2017-07-28T00:15:34.491Z,27.7
2017-07-28T00:16:36.621Z,27.8
2017-07-28T00:17:38.423Z,27.7
2017-07-28T00:18:40.221Z,27.7
2017-07-28T00:19:42.021Z,27.8
2017-07-28T00:20:43.488Z,27.8
2017-07-28T00:21:45.619Z,27.7
2017-07-28T00:22:47.415Z,27.7
2017-07-28T00:23:49.213Z,27.7
2017-07-28T00:24:51.011Z,27.7
2017-07-28T00:25:52.475Z,27.8
2017-07-28T00:26:54.251Z,27.7
2017-07-28T00:27:56.051Z,27.7
2017-07-28T00:28:57.826Z,27.7
2017-07-28T00:29:59.957Z,27.7
2017-07-28T00:31:01.401Z,27.7
2017-07-28T00:32:03.203Z,27.7
2017-07-28T00:33:04.668Z,27.7
2017-07-28T00:34:06.466Z,27.7
2017-07-28T00:35:08.595Z,27.7
2017-07-28T00:36:10.755Z,27.7
2017-07-28T00:37:12.196Z,27.7
2017-07-28T00:38:13.998Z,27.7
2017-07-28T00:39:16.131Z,27.7
2017-07-28T00:40:17.579Z,27.7
2017-07-28T00:41:19.353Z,27.7
2017-07-28T00:42:21.482Z,27.6
2017-07-28T00:43:23.610Z,27.8
2017-07-28T00:44:25.411Z,27.7
2017-07-28T00:45:27.207Z,27.7
2017-07-28T00:46:29.006Z,27.7
2017-07-28T00:47:31.134Z,27.7
2017-07-28T00:48:33.264Z,27.6
2017-07-28T00:49:35.392Z,27.7
2017-07-28T00:50:37.169Z,27.6
2017-07-28T00:51:39.301Z,27.7
2017-07-28T00:52:40.769Z,27.7
2017-07-28T00:53:42.233Z,27.7
2017-07-28T00:54:44.364Z,27.6
2017-07-28T00:55:46.495Z,27.7
2017-07-28T00:56:47.941Z,27.7
2017-07-28T00:57:50.070Z,27.7
2017-07-28T00:58:51.845Z,27.7
2017-07-28T00:59:53.973Z,27.7
2017-07-28T01:00:56.104Z,27.7
2017-07-28T01:01:58.234Z,27.7
2017-07-28T01:03:00.012Z,27.7
2017-07-28T01:04:01.857Z,27.7
2017-07-28T01:05:03.991Z,27.7
2017-07-28T01:06:05.821Z,27.6
2017-07-28T01:07:07.952Z,27.7
2017-07-28T01:08:09.747Z,27.7
2017-07-28T01:09:11.542Z,27.7
2017-07-28T01:10:13.316Z,27.6
2017-07-28T01:11:15.444Z,27.6
2017-07-28T01:12:17.303Z,27.6
2017-07-28T01:13:19.432Z,27.6
2017-07-28T01:14:20.873Z,27.6
2017-07-28T01:15:22.678Z,27.6
2017-07-28T01:16:24.806Z,27.7
2017-07-28T01:17:26.936Z,27.7
2017-07-28T01:18:29.065Z,27.7
2017-07-28T01:19:30.864Z,27.6
2017-07-28T01:20:32.662Z,27.7
2017-07-28T01:21:33.772Z,27.7
2017-07-28T01:22:35.920Z,27.6
2017-07-28T01:23:37.038Z,27.5
2017-07-28T01:24:39.167Z,27.6
2017-07-28T01:25:40.981Z,27.6
2017-07-28T01:26:43.108Z,27.6
2017-07-28T01:27:44.907Z,27.6
2017-07-28T01:28:46.698Z,27.6
2017-07-28T01:29:48.132Z,27.6
2017-07-28T01:30:50.262Z,27.6
2017-07-28T01:31:51.705Z,27.7
2017-07-28T01:32:52.839Z,27.7
2017-07-28T01:33:54.967Z,27.6
2017-07-28T01:34:56.768Z,27.6
2017-07-28T01:35:58.570Z,27.6
2017-07-28T01:37:00.708Z,27.6
2017-07-28T01:38:02.497Z,27.6
2017-07-28T01:39:03.964Z,27.6
2017-07-28T01:40:06.094Z,27.6
2017-07-28T01:41:07.559Z,27.6
2017-07-28T01:42:09.023Z,27.7
2017-07-28T01:43:10.465Z,27.6
2017-07-28T01:44:12.271Z,27.6
2017-07-28T01:45:14.401Z,27.6
2017-07-28T01:46:16.198Z,27.6
2017-07-28T01:47:17.972Z,27.6
2017-07-28T01:48:20.104Z,27.6
2017-07-28T01:49:21.902Z,27.6
2017-07-28T01:50:24.034Z,27.7
2017-07-28T01:51:25.829Z,27.6
2017-07-28T01:52:26.965Z,27.6
2017-07-28T01:53:28.424Z,27.6
2017-07-28T01:54:30.558Z,27.6
2017-07-28T01:55:32.685Z,27.6
2017-07-28T01:56:34.832Z,27.6
2017-07-28T01:57:36.949Z,27.6
2017-07-28T01:58:39.079Z,27.5
2017-07-28T01:59:41.211Z,27.5
2017-07-28T02:00:43.340Z,27.6
2017-07-28T02:01:45.471Z,27.5
2017-07-28T02:02:47.600Z,27.5
2017-07-28T02:03:49.731Z,27.5
2017-07-28T02:04:51.860Z,27.5
2017-07-28T02:05:53.657Z,27.5
2017-07-28T02:06:55.456Z,27.5
2017-07-28T02:07:56.898Z,27.6
2017-07-28T02:08:58.677Z,27.5
2017-07-28T02:10:00.452Z,27.5
2017-07-28T02:11:02.252Z,27.5
2017-07-28T02:12:03.705Z,27.5
2017-07-28T02:13:05.832Z,27.5
2017-07-28T02:14:07.963Z,27.5
2017-07-28T02:15:10.095Z,27.5
2017-07-28T02:16:11.889Z,27.5
2017-07-28T02:17:13.688Z,27.5
2017-07-28T02:18:15.537Z,27.6
2017-07-28T02:19:16.981Z,27.5
2017-07-28T02:20:18.444Z,27.5
2017-07-28T02:21:20.574Z,27.5
2017-07-28T02:22:22.705Z,27.6
2017-07-28T02:23:24.170Z,27.6
2017-07-28T02:24:25.969Z,27.6
2017-07-28T02:25:28.098Z,27.5
2017-07-28T02:26:29.903Z,27.5
2017-07-28T02:27:31.710Z,27.6
2017-07-28T02:28:33.165Z,27.5
2017-07-28T02:29:35.295Z,27.6
2017-07-28T02:30:37.082Z,27.5
2017-07-28T02:31:39.213Z,27.5
2017-07-28T02:32:41.014Z,27.5
2017-07-28T02:33:43.139Z,27.6
2017-07-28T02:34:44.605Z,27.4
2017-07-28T02:35:46.771Z,27.4
2017-07-28T02:36:48.902Z,27.4
2017-07-28T02:37:50.699Z,27.5
2017-07-28T02:38:52.474Z,27.5
2017-07-28T02:39:53.940Z,27.5
2017-07-28T02:40:55.715Z,27.4
2017-07-28T02:41:57.163Z,27.5
2017-07-28T02:42:59.300Z,27.5
2017-07-28T02:44:01.431Z,27.4
2017-07-28T02:45:03.558Z,27.5
2017-07-28T02:46:05.003Z,27.4
2017-07-28T02:47:06.775Z,27.5
2017-07-28T02:48:08.905Z,27.4
2017-07-28T02:49:10.704Z,27.4
2017-07-28T02:50:12.479Z,27.5
2017-07-28T02:51:13.950Z,27.5
2017-07-28T02:52:15.749Z,27.6
2017-07-28T02:53:17.879Z,27.5
2017-07-28T02:54:19.675Z,27.5
2017-07-28T02:55:21.452Z,27.4
2017-07-28T02:56:22.917Z,27.5
2017-07-28T02:57:24.721Z,27.4
2017-07-28T02:58:26.510Z,27.4
2017-07-28T02:59:28.306Z,27.4
2017-07-28T03:00:29.750Z,27.5
2017-07-28T03:01:31.548Z,27.5
2017-07-28T03:02:33.346Z,27.4
2017-07-28T03:03:35.475Z,27.5
2017-07-28T03:04:37.603Z,27.5
2017-07-28T03:05:39.405Z,27.5
2017-07-28T03:06:40.868Z,27.5
2017-07-28T03:07:42.669Z,27.4
2017-07-28T03:08:44.467Z,27.3
2017-07-28T03:09:46.265Z,27.5
2017-07-28T03:10:48.039Z,27.4
2017-07-28T03:11:49.487Z,27.5
2017-07-28T03:12:50.930Z,27.5
2017-07-28T03:13:52.043Z,27.5
2017-07-28T03:14:53.832Z,27.5
2017-07-28T03:15:55.278Z,27.5
2017-07-28T03:16:56.743Z,27.5
2017-07-28T03:17:58.544Z,27.4
2017-07-28T03:19:00.334Z,27.4
2017-07-28T03:20:02.461Z,27.5
2017-07-28T03:21:03.929Z,27.4
2017-07-28T03:22:05.777Z,27.5
2017-07-28T03:23:07.231Z,27.5
2017-07-28T03:24:09.362Z,27.5
2017-07-28T03:25:11.497Z,27.5
2017-07-28T03:26:12.938Z,27.5
2017-07-28T03:27:15.069Z,27.4
2017-07-28T03:28:16.850Z,27.5
2017-07-28T03:29:18.979Z,27.4
2017-07-28T03:30:20.783Z,27.5
2017-07-28T03:31:22.574Z,27.4
2017-07-28T03:32:24.025Z,27.4
2017-07-28T03:33:25.794Z,27.5
2017-07-28T03:34:27.593Z,27.4
2017-07-28T03:35:29.364Z,27.4
2017-07-28T03:36:31.168Z,27.5
2017-07-28T03:37:32.980Z,27.4
2017-07-28T03:38:34.436Z,27.5
2017-07-28T03:39:36.236Z,27.4
2017-07-28T03:40:38.035Z,27.5
2017-07-28T03:41:40.172Z,27.4
2017-07-28T03:42:41.969Z,27.4
2017-07-28T03:43:44.101Z,27.5
2017-07-28T03:44:46.238Z,27.4
2017-07-28T03:45:48.370Z,27.4
2017-07-28T03:46:50.171Z,27.5
2017-07-28T03:47:51.942Z,27.4
2017-07-28T03:48:52.730Z,27.4
2017-07-28T03:49:54.530Z,27.4
2017-07-28T03:50:56.661Z,27.4
2017-07-28T03:51:58.463Z,27.4
2017-07-28T03:53:00.261Z,27.5
2017-07-28T03:54:02.392Z,27.5
2017-07-28T03:55:03.525Z,27.5
2017-07-28T03:56:05.323Z,27.4
2017-07-28T03:57:07.126Z,27.4
2017-07-28T03:58:08.926Z,27.4
2017-07-28T03:59:11.066Z,27.4
2017-07-28T04:00:13.194Z,27.5
2017-07-28T04:01:14.966Z,27.4
2017-07-28T04:02:17.096Z,27.4
2017-07-28T04:03:18.571Z,27.5
2017-07-28T04:04:20.375Z,27.6
2017-07-28T04:05:22.507Z,27.4
2017-07-28T04:06:24.283Z,27.4
2017-07-28T04:07:25.752Z,27.4
2017-07-28T04:08:27.878Z,27.4
2017-07-28T04:09:29.660Z,27.4
2017-07-28T04:10:31.787Z,27.5
2017-07-28T04:11:33.918Z,27.4
2017-07-28T04:12:35.384Z,27.4
2017-07-28T04:13:36.830Z,27.5
2017-07-28T04:14:38.604Z,27.4
2017-07-28T04:15:40.407Z,27.4
2017-07-28T04:16:41.519Z,27.4
2017-07-28T04:17:43.316Z,27.5
2017-07-28T04:18:45.092Z,27.5
2017-07-28T04:19:46.871Z,27.4
2017-07-28T04:20:49.003Z,27.5
2017-07-28T04:21:51.139Z,27.4
2017-07-28T04:22:52.938Z,27.4
2017-07-28T04:23:54.716Z,27.4
2017-07-28T04:24:55.828Z,27.5
2017-07-28T04:25:57.637Z,27.5
2017-07-28T04:26:59.100Z,27.4
2017-07-28T04:28:01.233Z,27.4
2017-07-28T04:29:03.031Z,27.5
2017-07-28T04:30:05.160Z,27.4
2017-07-28T04:31:06.630Z,27.4
2017-07-28T04:32:08.431Z,27.5
2017-07-28T04:33:10.562Z,27.5
2017-07-28T04:34:12.692Z,27.4
2017-07-28T04:35:14.495Z,27.4
2017-07-28T04:36:16.295Z,27.5
2017-07-28T04:37:18.095Z,27.5
2017-07-28T04:38:19.944Z,27.5
2017-07-28T04:39:21.387Z,27.4
2017-07-28T04:40:23.166Z,27.5
2017-07-28T04:41:25.297Z,27.5
2017-07-28T04:42:27.080Z,27.5
2017-07-28T04:43:28.928Z,27.5
2017-07-28T04:44:30.378Z,27.5
2017-07-28T04:45:32.177Z,27.5
2017-07-28T04:46:34.310Z,27.4
2017-07-28T04:47:36.442Z,27.4
2017-07-28T04:48:38.577Z,27.5
2017-07-28T04:49:40.707Z,27.6
2017-07-28T04:50:42.510Z,27.8
2017-07-28T04:51:44.291Z,27.8
2017-07-28T04:52:46.086Z,27.9
2017-07-28T04:53:47.882Z,27.9
2017-07-28T04:54:50.018Z,27.9
2017-07-28T04:55:52.152Z,27.8
2017-07-28T04:56:53.952Z,27.7
2017-07-28T04:57:56.083Z,27.7
2017-07-28T04:58:57.553Z,27.7
2017-07-28T04:59:59.684Z,27.6
2017-07-28T05:01:01.127Z,27.7
2017-07-28T05:02:03.268Z,27.7
2017-07-28T05:03:05.400Z,27.7
2017-07-28T05:04:07.198Z,27.7
2017-07-28T05:05:09.329Z,27.7
2017-07-28T05:06:11.459Z,27.6
2017-07-28T05:07:12.931Z,27.7
2017-07-28T05:08:14.395Z,27.7
2017-07-28T05:09:16.198Z,27.7
2017-07-28T05:10:18.332Z,27.9
2017-07-28T05:11:19.772Z,27.9
2017-07-28T05:12:21.236Z,28
2017-07-28T05:13:23.034Z,28.1
2017-07-28T05:14:25.217Z,28.2
2017-07-28T05:15:27.015Z,28.2
2017-07-28T05:16:28.812Z,28.3
2017-07-28T05:17:30.607Z,28.3
2017-07-28T05:18:32.052Z,28.3
2017-07-28T05:19:33.518Z,28.2
2017-07-28T05:20:34.961Z,28.2
2017-07-28T05:21:37.095Z,28.2
2017-07-28T05:22:39.231Z,28.2
2017-07-28T05:23:41.025Z,28.2
2017-07-28T05:24:42.476Z,28.3
2017-07-28T05:25:44.278Z,28.3
2017-07-28T05:26:46.079Z,28.4
2017-07-28T05:27:48.213Z,28.4
2017-07-28T05:28:50.341Z,28.4
2017-07-28T05:29:52.475Z,28.3
2017-07-28T05:30:54.607Z,28.4
2017-07-28T05:31:56.741Z,28.4
2017-07-28T05:32:58.541Z,28.5
2017-07-28T05:34:00.341Z,28.4
2017-07-28T05:35:01.786Z,28.4
2017-07-28T05:36:03.918Z,28.4
2017-07-28T05:37:05.033Z,28.5
2017-07-28T05:38:06.151Z,28.5
2017-07-28T05:39:07.636Z,28.5
2017-07-28T05:40:09.440Z,28.5
2017-07-28T05:41:11.572Z,28.5
2017-07-28T05:42:13.375Z,28.6
2017-07-28T05:43:14.824Z,28.5
2017-07-28T05:44:16.954Z,28.6
2017-07-28T05:45:19.090Z,28.6
2017-07-28T05:46:20.899Z,28.7
2017-07-28T05:47:22.686Z,28.6
2017-07-28T05:48:24.490Z,28.6
2017-07-28T05:49:26.286Z,28.6
2017-07-28T05:50:28.419Z,28.6
2017-07-28T05:51:30.200Z,28.6
2017-07-28T05:52:31.978Z,28.6
2017-07-28T05:53:34.109Z,28.7
2017-07-28T05:54:36.242Z,28.6
2017-07-28T05:55:38.022Z,28.6
2017-07-28T05:56:39.801Z,28.7
2017-07-28T05:57:41.273Z,28.7
2017-07-28T05:58:43.463Z,28.7
2017-07-28T05:59:45.594Z,28.8
2017-07-28T06:00:47.401Z,28.8
2017-07-28T06:01:49.528Z,28.8
2017-07-28T06:02:51.311Z,28.7
2017-07-28T06:03:53.439Z,28.8
2017-07-28T06:04:55.573Z,28.8
2017-07-28T06:05:57.016Z,28.7
2017-07-28T06:06:58.464Z,28.7
2017-07-28T06:07:59.929Z,28.8
2017-07-28T06:09:01.739Z,28.8
2017-07-28T06:10:03.873Z,28.8
2017-07-28T06:11:05.325Z,28.7
2017-07-28T06:12:06.790Z,28.8
2017-07-28T06:13:08.588Z,28.8
2017-07-28T06:14:10.389Z,28.8
2017-07-28T06:15:12.526Z,28.7
2017-07-28T06:16:14.324Z,28.8
2017-07-28T06:17:16.124Z,28.8
2017-07-28T06:18:17.900Z,28.8
2017-07-28T06:19:20.054Z,28.7
2017-07-28T06:20:21.850Z,28.7
2017-07-28T06:21:23.986Z,28.8
2017-07-28T06:22:25.455Z,28.8
2017-07-28T06:23:27.589Z,28.9
2017-07-28T06:24:28.727Z,28.8
2017-07-28T06:25:30.529Z,28.9
2017-07-28T06:26:31.308Z,28.9
2017-07-28T06:27:33.091Z,28.9
2017-07-28T06:28:34.889Z,28.9
2017-07-28T06:29:36.353Z,28.8
2017-07-28T06:30:38.488Z,28.8
2017-07-28T06:31:40.294Z,28.8
2017-07-28T06:32:42.098Z,28.8
2017-07-28T06:33:43.569Z,28.8
2017-07-28T06:34:45.034Z,28.8
2017-07-28T06:35:46.510Z,28.9
2017-07-28T06:36:48.410Z,28.8
2017-07-28T06:37:50.214Z,28.9
2017-07-28T06:38:52.025Z,28.8
2017-07-28T06:39:53.501Z,28.8
2017-07-28T06:40:54.956Z,28.9
2017-07-28T06:41:56.754Z,28.9
2017-07-28T06:42:58.891Z,28.8
2017-07-28T06:44:00.358Z,28.8
2017-07-28T06:45:01.140Z,28.9
2017-07-28T06:46:02.947Z,28.9
2017-07-28T06:47:04.727Z,28.9
2017-07-28T06:48:06.860Z,28.9
2017-07-28T06:49:08.993Z,28.9
2017-07-28T06:50:11.127Z,28.9
2017-07-28T06:51:13.287Z,28.9
2017-07-28T06:52:15.422Z,28.9
2017-07-28T06:53:17.203Z,28.9
2017-07-28T06:54:19.338Z,28.9
2017-07-28T06:55:21.138Z,28.9
2017-07-28T06:56:23.291Z,28.9
2017-07-28T06:57:25.092Z,28.9
2017-07-28T06:58:26.895Z,28.9
2017-07-28T06:59:28.342Z,28.9
2017-07-28T07:00:30.474Z,28.9
2017-07-28T07:01:31.607Z,28.9
2017-07-28T07:02:33.104Z,28.9
2017-07-28T07:03:34.572Z,28.9
2017-07-28T07:04:36.024Z,28.9
2017-07-28T07:05:38.156Z,28.9
2017-07-28T07:06:39.624Z,28.9
2017-07-28T07:07:41.761Z,28.9
2017-07-28T07:08:43.895Z,28.9
2017-07-28T07:09:46.027Z,28.9
2017-07-28T07:10:48.170Z,28.9
2017-07-28T07:11:49.643Z,28.8
2017-07-28T07:12:51.776Z,28.8
2017-07-28T07:13:53.905Z,28.8
2017-07-28T07:14:56.037Z,28.9
2017-07-28T07:15:57.840Z,28.9
2017-07-28T07:16:59.974Z,28.9
2017-07-28T07:18:02.105Z,28.8
2017-07-28T07:19:03.884Z,28.8
2017-07-28T07:20:05.433Z,28.9
2017-07-28T07:21:06.906Z,28.8
2017-07-28T07:22:08.371Z,28.9
2017-07-28T07:23:10.169Z,28.8
2017-07-28T07:24:11.971Z,28.8
2017-07-28T07:25:14.106Z,28.8
2017-07-28T07:26:15.904Z,28.9
2017-07-28T07:27:17.371Z,28.8
2017-07-28T07:28:19.506Z,28.8
2017-07-28T07:29:21.639Z,28.8
2017-07-28T07:30:23.108Z,28.7
2017-07-28T07:31:24.912Z,28.8
2017-07-28T07:32:26.693Z,28.8
2017-07-28T07:33:28.825Z,28.8
2017-07-28T07:34:30.958Z,28.8
2017-07-28T07:35:33.093Z,28.8
2017-07-28T07:36:34.875Z,28.8
2017-07-28T07:37:37.005Z,28.8
2017-07-28T07:38:38.804Z,28.7
2017-07-28T07:39:40.944Z,28.8
2017-07-28T07:40:43.075Z,28.8
2017-07-28T07:41:44.523Z,28.8
2017-07-28T07:42:46.302Z,28.8
2017-07-28T07:43:48.102Z,28.8
2017-07-28T07:44:50.235Z,28.8
2017-07-28T07:45:52.373Z,28.9
2017-07-28T07:46:54.170Z,28.8
2017-07-28T07:47:56.306Z,28.8
2017-07-28T07:48:58.085Z,28.9
2017-07-28T07:49:59.884Z,28.8
2017-07-28T07:51:01.342Z,28.9
2017-07-28T07:52:02.453Z,28.8
2017-07-28T07:53:03.916Z,28.8
2017-07-28T07:54:05.696Z,28.9
2017-07-28T07:55:07.829Z,28.9
2017-07-28T07:56:09.612Z,28.9
2017-07-28T07:57:11.407Z,28.8
2017-07-28T07:58:13.540Z,28.8
2017-07-28T07:59:15.692Z,28.9
2017-07-28T08:00:17.469Z,28.8
2017-07-28T08:01:19.607Z,28.8
2017-07-28T08:02:21.405Z,28.8
2017-07-28T08:03:22.870Z,28.8
2017-07-28T08:04:24.666Z,28.9
2017-07-28T08:05:26.111Z,28.9
2017-07-28T08:06:28.244Z,28.9
2017-07-28T08:07:29.688Z,28.9
2017-07-28T08:08:31.138Z,28.9
2017-07-28T08:09:33.268Z,28.9
2017-07-28T08:10:35.075Z,28.9
2017-07-28T08:11:37.210Z,28.9
2017-07-28T08:12:39.010Z,28.9
2017-07-28T08:13:41.140Z,28.9
2017-07-28T08:14:43.273Z,28.9
2017-07-28T08:15:44.752Z,28.9
2017-07-28T08:16:46.886Z,28.9
2017-07-28T08:17:48.070Z,28.9
2017-07-28T08:18:49.540Z,28.8
2017-07-28T08:19:51.340Z,28.8
2017-07-28T08:20:52.783Z,28.9
2017-07-28T08:21:54.583Z,28.9
2017-07-28T08:22:56.719Z,28.9
2017-07-28T08:23:58.517Z,28.9
2017-07-28T08:25:00.650Z,28.9
2017-07-28T08:26:02.432Z,28.8
2017-07-28T08:27:04.564Z,28.9
2017-07-28T08:28:06.033Z,28.8
2017-07-28T08:29:07.500Z,28.9
2017-07-28T08:30:09.278Z,28.8
2017-07-28T08:31:11.081Z,28.8
2017-07-28T08:32:12.193Z,28.8
2017-07-28T08:33:14.330Z,28.8
2017-07-28T08:34:16.129Z,28.8
2017-07-28T08:35:17.932Z,28.9
2017-07-28T08:36:19.722Z,28.9
2017-07-28T08:37:21.856Z,28.9
2017-07-28T08:38:23.302Z,28.9
2017-07-28T08:39:24.764Z,28.8
2017-07-28T08:40:26.902Z,28.9
2017-07-28T08:41:29.034Z,28.9
2017-07-28T08:42:30.811Z,28.9
2017-07-28T08:43:32.614Z,28.9
2017-07-28T08:44:34.395Z,28.8
2017-07-28T08:45:35.838Z,28.9
2017-07-28T08:46:37.652Z,28.9
2017-07-28T08:47:39.128Z,28.8
2017-07-28T08:48:40.928Z,28.9
2017-07-28T08:49:43.059Z,28.9
2017-07-28T08:50:44.889Z,28.9
2017-07-28T08:51:47.027Z,28.9
2017-07-28T08:52:48.137Z,28.9
2017-07-28T08:53:49.941Z,28.9
2017-07-28T08:54:51.742Z,28.9
2017-07-28T08:55:53.203Z,28.9
2017-07-28T08:56:55.005Z,28.8
2017-07-28T08:57:56.460Z,28.9
2017-07-28T08:58:58.594Z,28.9
2017-07-28T09:00:00.046Z,28.9
2017-07-28T09:01:02.231Z,28.8
2017-07-28T09:02:04.009Z,28.9
2017-07-28T09:03:05.477Z,28.9
2017-07-28T09:04:06.949Z,28.9
2017-07-28T09:05:09.080Z,28.9
2017-07-28T09:06:11.213Z,28.8
2017-07-28T09:07:13.014Z,28.8
2017-07-28T09:08:14.464Z,28.9
2017-07-28T09:09:16.603Z,28.9
2017-07-28T09:10:18.054Z,28.9
2017-07-28T09:11:20.187Z,28.9
2017-07-28T09:12:21.987Z,28.9
2017-07-28T09:13:23.457Z,28.9
2017-07-28T09:14:25.258Z,28.9
2017-07-28T09:15:26.374Z,28.9
2017-07-28T09:16:28.507Z,28.9
2017-07-28T09:17:30.309Z,29
2017-07-28T09:18:32.085Z,28.9
2017-07-28T09:19:33.887Z,28.9
2017-07-28T09:20:36.021Z,28.9
2017-07-28T09:21:37.795Z,28.9
2017-07-28T09:22:39.242Z,28.8
2017-07-28T09:23:41.026Z,28.9
2017-07-28T09:24:42.829Z,28.9
2017-07-28T09:25:44.280Z,28.9
2017-07-28T09:26:46.510Z,28.8
2017-07-28T09:27:48.307Z,28.9
2017-07-28T09:28:50.089Z,28.8
2017-07-28T09:29:51.539Z,28.8
2017-07-28T09:30:53.315Z,28.8
2017-07-28T09:31:55.449Z,28.9
2017-07-28T09:32:57.249Z,28.8
2017-07-28T09:33:58.697Z,28.9
2017-07-28T09:35:00.473Z,28.8
2017-07-28T09:36:02.257Z,28.8
2017-07-28T09:37:04.062Z,28.8
2017-07-28T09:38:05.531Z,28.8
2017-07-28T09:39:07.334Z,28.8
2017-07-28T09:40:09.137Z,28.9
2017-07-28T09:41:10.941Z,28.9
2017-07-28T09:42:13.076Z,28.9
2017-07-28T09:43:15.215Z,28.9
2017-07-28T09:44:17.344Z,28.9
2017-07-28T09:45:19.142Z,28.9
2017-07-28T09:46:20.919Z,28.9
2017-07-28T09:47:22.823Z,28.9
2017-07-28T09:48:24.958Z,28.9
2017-07-28T09:49:27.088Z,28.8
2017-07-28T09:50:29.224Z,28.9
2017-07-28T09:51:31.356Z,28.9
2017-07-28T09:52:33.159Z,28.9
2017-07-28T09:53:34.964Z,28.9
2017-07-28T09:54:36.412Z,28.9
2017-07-28T09:55:38.226Z,28.9
2017-07-28T09:56:39.672Z,28.9
2017-07-28T09:57:41.119Z,28.9
2017-07-28T09:58:42.919Z,28.9
2017-07-28T09:59:44.727Z,28.9
2017-07-28T10:00:46.527Z,28.8
2017-07-28T10:01:48.331Z,28.9
2017-07-28T10:02:49.799Z,28.9
2017-07-28T10:03:51.934Z,28.8
2017-07-28T10:04:53.711Z,28.9
2017-07-28T10:05:55.516Z,28.9
2017-07-28T10:06:57.651Z,28.9
2017-07-28T10:07:59.122Z,28.9
2017-07-28T10:09:01.255Z,28.8
2017-07-28T10:10:03.068Z,28.8
2017-07-28T10:11:04.537Z,28.8
2017-07-28T10:12:05.661Z,28.9
2017-07-28T10:13:07.107Z,28.9
2017-07-28T10:14:09.242Z,28.9
2017-07-28T10:15:11.378Z,28.9
2017-07-28T10:16:12.853Z,28.9
2017-07-28T10:17:14.982Z,28.9
2017-07-28T10:18:17.121Z,28.9
2017-07-28T10:19:19.259Z,28.8
2017-07-28T10:20:21.053Z,28.9
2017-07-28T10:21:22.501Z,28.9
2017-07-28T10:22:24.305Z,28.9
2017-07-28T10:23:26.087Z,28.9
2017-07-28T10:24:28.218Z,28.9
2017-07-28T10:25:29.995Z,28.9
2017-07-28T10:26:31.466Z,28.9
2017-07-28T10:27:33.603Z,29
2017-07-28T10:28:35.733Z,29
2017-07-28T10:29:37.535Z,29
2017-07-28T10:30:39.668Z,28.9
2017-07-28T10:31:41.470Z,28.9
2017-07-28T10:32:43.270Z,28.9
2017-07-28T10:33:44.735Z,28.9
2017-07-28T10:34:45.851Z,28.9
2017-07-28T10:35:47.986Z,29
2017-07-28T10:36:50.123Z,29
2017-07-28T10:37:52.256Z,29
2017-07-28T10:38:54.111Z,29
2017-07-28T10:39:55.910Z,29
2017-07-28T10:40:57.380Z,29
2017-07-28T10:41:59.507Z,29
2017-07-28T10:43:01.311Z,29
2017-07-28T10:44:03.119Z,28.9
2017-07-28T10:45:04.893Z,29
2017-07-28T10:46:06.697Z,29
2017-07-28T10:47:08.496Z,29
2017-07-28T10:48:10.633Z,29
2017-07-28T10:49:12.764Z,29
2017-07-28T10:50:14.895Z,29
2017-07-28T10:51:16.351Z,29
2017-07-28T10:52:17.480Z,29
2017-07-28T10:53:19.283Z,29
2017-07-28T10:54:20.397Z,29
2017-07-28T10:55:22.195Z,29
2017-07-28T10:56:23.643Z,29
2017-07-28T10:57:24.755Z,28.9
2017-07-28T10:58:26.231Z,29
2017-07-28T10:59:28.461Z,29
2017-07-28T11:00:30.239Z,29
2017-07-28T11:01:32.036Z,29
2017-07-28T11:02:33.487Z,29.1
2017-07-28T11:03:35.620Z,29
2017-07-28T11:04:37.422Z,29.1
2017-07-28T11:05:39.206Z,29
2017-07-28T11:06:40.658Z,29
2017-07-28T11:07:42.439Z,29
2017-07-28T11:08:44.572Z,29
2017-07-28T11:09:46.371Z,29
2017-07-28T11:10:48.174Z,29
2017-07-28T11:11:49.976Z,29.1
2017-07-28T11:12:51.759Z,29
2017-07-28T11:13:53.559Z,29
2017-07-28T11:14:55.692Z,29
2017-07-28T11:15:57.490Z,29.1
2017-07-28T11:16:58.273Z,29
2017-07-28T11:18:00.076Z,29
2017-07-28T11:19:01.548Z,29
2017-07-28T11:20:03.323Z,29
2017-07-28T11:21:04.445Z,29.1
2017-07-28T11:22:06.243Z,29
2017-07-28T11:23:08.380Z,29
2017-07-28T11:24:09.493Z,29
2017-07-28T11:25:10.605Z,29
2017-07-28T11:26:12.413Z,29
2017-07-28T11:27:14.558Z,29
2017-07-28T11:28:16.030Z,29
2017-07-28T11:29:17.473Z,29
2017-07-28T11:30:19.605Z,29.1
2017-07-28T11:31:21.074Z,29.1
2017-07-28T11:32:22.524Z,29
2017-07-28T11:33:24.655Z,29.1
2017-07-28T11:34:26.459Z,29
2017-07-28T11:35:28.689Z,29.1
2017-07-28T11:36:30.136Z,29.1
2017-07-28T11:37:31.583Z,29.1
2017-07-28T11:38:32.716Z,29.1
2017-07-28T11:39:34.854Z,29.1
2017-07-28T11:40:36.642Z,29
2017-07-28T11:41:38.424Z,29.1
2017-07-28T11:42:39.538Z,29
2017-07-28T11:43:41.342Z,29
2017-07-28T11:44:42.455Z,29
2017-07-28T11:45:44.257Z,29
2017-07-28T11:46:46.054Z,29
2017-07-28T11:47:47.858Z,29.1
2017-07-28T11:48:49.989Z,29.1
2017-07-28T11:49:51.123Z,29.1
2017-07-28T11:50:52.920Z,29.1
2017-07-28T11:51:55.058Z,29.1
2017-07-28T11:52:56.863Z,29.1
2017-07-28T11:53:58.339Z,29.1
2017-07-28T11:55:00.469Z,29.1
2017-07-28T11:56:01.938Z,29.1
2017-07-28T11:57:04.072Z,29.1
2017-07-28T11:58:06.207Z,29
2017-07-28T11:59:08.339Z,29.1
2017-07-28T12:00:10.471Z,29.1
2017-07-28T12:01:12.606Z,29
2017-07-28T12:02:14.387Z,29.1
2017-07-28T12:03:15.829Z,29.1
2017-07-28T12:04:17.965Z,29
2017-07-28T12:05:19.765Z,29.1
2017-07-28T12:06:21.894Z,29.1
2017-07-28T12:07:23.693Z,29
2017-07-28T12:08:25.833Z,29.1
2017-07-28T12:09:27.274Z,29.1
2017-07-28T12:10:28.741Z,29.1
2017-07-28T12:11:29.878Z,29.1
2017-07-28T12:12:31.329Z,29.1
2017-07-28T12:13:33.460Z,29.1
2017-07-28T12:14:35.259Z,29
2017-07-28T12:15:37.392Z,29.1
2017-07-28T12:16:39.527Z,29.1
2017-07-28T12:17:41.334Z,29.1
2017-07-28T12:18:43.463Z,29.1
2017-07-28T12:19:45.264Z,29.1
2017-07-28T12:20:47.068Z,29.1
2017-07-28T12:21:48.870Z,29
2017-07-28T12:22:50.673Z,29.1
2017-07-28T12:23:52.448Z,29
2017-07-28T12:24:54.583Z,29.1
2017-07-28T12:25:56.383Z,29
2017-07-28T12:26:58.618Z,29.1
2017-07-28T12:28:00.420Z,29.1
2017-07-28T12:29:01.533Z,29.1
2017-07-28T12:30:03.337Z,29.1
2017-07-28T12:31:05.137Z,29.1
2017-07-28T12:32:06.933Z,29.1
2017-07-28T12:33:08.380Z,29.1
2017-07-28T12:34:10.181Z,29.1
2017-07-28T12:35:11.983Z,29.1
2017-07-28T12:36:13.787Z,29.1
2017-07-28T12:37:15.238Z,29.1
2017-07-28T12:38:17.373Z,29.1
2017-07-28T12:39:18.827Z,29.1
2017-07-28T12:40:20.628Z,29.1
2017-07-28T12:41:22.765Z,29.2
2017-07-28T12:42:24.567Z,29.1
2017-07-28T12:43:26.703Z,29.1
2017-07-28T12:44:28.503Z,29.2
2017-07-28T12:45:30.279Z,29.2
2017-07-28T12:46:32.413Z,29.2
2017-07-28T12:47:34.218Z,29.2
2017-07-28T12:48:36.350Z,29.2
2017-07-28T12:49:38.150Z,29.2
2017-07-28T12:50:39.950Z,29.3
2017-07-28T12:51:41.728Z,29.2
2017-07-28T12:52:43.223Z,29.1
2017-07-28T12:53:45.022Z,29.1
2017-07-28T12:54:46.802Z,29.3
2017-07-28T12:55:48.937Z,29.2
2017-07-28T12:56:51.078Z,29.3
2017-07-28T12:57:52.927Z,29.2
2017-07-28T12:58:54.727Z,29.3
2017-07-28T12:59:56.861Z,29.2
2017-07-28T13:00:58.998Z,29.3
2017-07-28T13:02:00.801Z,29.3
2017-07-28T13:03:02.613Z,29.3
2017-07-28T13:04:04.419Z,29.2
2017-07-28T13:05:06.553Z,29.2
2017-07-28T13:06:08.353Z,29.3
2017-07-28T13:07:09.824Z,29.3
2017-07-28T13:08:10.968Z,29.3
2017-07-28T13:09:13.107Z,29.3
2017-07-28T13:10:14.884Z,29.4
2017-07-28T13:11:17.021Z,29.3
2017-07-28T13:12:19.151Z,29.3
2017-07-28T13:13:21.331Z,29.2
2017-07-28T13:14:22.810Z,29.3
2017-07-28T13:15:24.274Z,29.3
2017-07-28T13:16:26.080Z,29.3
2017-07-28T13:17:27.877Z,29.3
2017-07-28T13:18:29.681Z,29.3
2017-07-28T13:19:31.814Z,29.3
2017-07-28T13:20:33.290Z,29.2
2017-07-28T13:21:34.742Z,29.2
2017-07-28T13:22:36.190Z,29.3
2017-07-28T13:23:37.992Z,29.2
2017-07-28T13:24:40.129Z,29.2
2017-07-28T13:25:41.595Z,29.3
2017-07-28T13:26:43.726Z,29.3
2017-07-28T13:27:45.527Z,29.3
2017-07-28T13:28:47.327Z,29.2
2017-07-28T13:29:48.775Z,29.2
2017-07-28T13:30:50.583Z,29.2
2017-07-28T13:31:52.381Z,29.1
2017-07-28T13:32:54.160Z,29.2
2017-07-28T13:33:55.949Z,29.1
2017-07-28T13:34:58.082Z,29.2
2017-07-28T13:35:59.194Z,29.2
2017-07-28T13:37:01.329Z,29.2
2017-07-28T13:38:03.108Z,29.2
2017-07-28T13:39:04.891Z,29.1
2017-07-28T13:40:06.673Z,29.1
2017-07-28T13:41:08.143Z,29.1
2017-07-28T13:42:09.944Z,29.1
2017-07-28T13:43:11.746Z,29.1
2017-07-28T13:44:13.193Z,29.1
2017-07-28T13:45:14.999Z,29.1
2017-07-28T13:46:17.129Z,29.1